createdAt,value
2023-05-09T00:01:15.924Z,4.55
2023-05-09T00:04:01.824Z,4.20
2023-05-09T00:06:47.216Z,4.07
2023-05-09T00:09:32.359Z,4.70
2023-05-09T00:12:17.705Z,4.65
2023-05-09T00:15:03.528Z,5.18
2023-05-09T00:17:50.489Z,4.70
2023-05-09T00:20:36.068Z,4.40
2023-05-09T00:23:21.658Z,4.43
2023-05-09T00:26:07.082Z,4.60
2023-05-09T00:28:52.511Z,4.97
2023-05-09T00:31:37.713Z,4.50
2023-05-09T00:34:23.128Z,4.75
2023-05-09T00:37:08.769Z,4.60
2023-05-09T00:39:53.980Z,4.65
2023-05-09T00:42:39.441Z,4.35
2023-05-09T00:45:24.744Z,4.10
2023-05-09T00:48:10.038Z,4.88
2023-05-09T00:50:55.443Z,4.57
2023-05-09T00:53:40.670Z,4.18
2023-05-09T00:56:26.726Z,4.28
2023-05-09T00:59:11.956Z,3.97
2023-05-09T01:01:57.081Z,4.03
2023-05-09T01:04:43.411Z,4.50
2023-05-09T01:08:06.338Z,4.15
2023-05-09T01:11:12.862Z,4.88
2023-05-09T01:14:20.388Z,4.00
2023-05-09T01:17:13.257Z,4.03
2023-05-09T01:20:11.089Z,4.45
2023-05-09T01:23:03.582Z,3.63
2023-05-09T01:26:01.970Z,3.90
2023-05-09T01:29:27.095Z,3.70
2023-05-09T01:32:25.436Z,3.70
2023-05-09T01:35:14.514Z,3.75
2023-05-09T01:38:01.260Z,3.95
2023-05-09T01:40:51.644Z,3.45
2023-05-09T01:43:38.660Z,3.45
2023-05-09T01:46:25.766Z,4.05
2023-05-09T01:49:11.964Z,4.03
2023-05-09T01:51:59.106Z,3.97
2023-05-09T01:54:45.946Z,3.65
2023-05-09T01:57:33.059Z,4.03
2023-05-09T02:00:19.371Z,4.05
2023-05-09T02:03:06.082Z,3.50
2023-05-09T02:05:52.405Z,3.78
2023-05-09T02:08:38.565Z,3.67
2023-05-09T02:11:23.652Z,3.35
2023-05-09T02:14:09.105Z,3.42
2023-05-09T02:16:54.442Z,3.22
2023-05-09T02:19:39.451Z,3.33
2023-05-09T02:22:24.959Z,3.25
2023-05-09T02:25:11.884Z,2.95
2023-05-09T02:27:59.477Z,3.40
2023-05-09T02:30:47.338Z,3.00
2023-05-09T02:33:36.809Z,3.10
2023-05-09T02:36:22.987Z,3.10
2023-05-09T02:39:08.742Z,3.30
2023-05-09T02:41:54.065Z,3.00
2023-05-09T02:44:39.515Z,3.22
2023-05-09T02:47:25.659Z,3.38
2023-05-09T02:50:11.457Z,2.92
2023-05-09T02:52:57.681Z,3.17
2023-05-09T02:55:42.789Z,3.22
2023-05-09T02:58:28.211Z,3.60
2023-05-09T03:01:13.398Z,3.15
2023-05-09T03:03:58.861Z,2.95
2023-05-09T03:06:44.107Z,3.83
2023-05-09T03:09:29.241Z,3.28
2023-05-09T03:12:14.509Z,2.88
2023-05-09T03:15:01.123Z,3.40
2023-05-09T03:17:47.336Z,3.13
2023-05-09T03:20:32.684Z,3.20
2023-05-09T03:23:17.754Z,3.58
2023-05-09T03:26:03.029Z,3.58
2023-05-09T03:28:48.958Z,3.33
2023-05-09T03:31:34.589Z,3.70
2023-05-09T03:34:20.148Z,3.70
2023-05-09T03:37:05.846Z,3.30
2023-05-09T03:39:54.519Z,3.15
2023-05-09T03:42:40.478Z,3.63
2023-05-09T03:45:25.956Z,4.35
2023-05-09T03:48:12.125Z,3.38
2023-05-09T03:51:03.325Z,3.65
2023-05-09T03:53:51.349Z,3.28
2023-05-09T03:56:36.736Z,3.58
2023-05-09T03:59:22.587Z,3.47
2023-05-09T04:02:08.280Z,3.53
2023-05-09T04:04:53.634Z,3.20
2023-05-09T04:07:41.453Z,3.85
2023-05-09T04:10:28.523Z,3.35
2023-05-09T04:13:14.095Z,3.67
2023-05-09T04:15:59.967Z,3.53
2023-05-09T04:18:47.698Z,3.47
2023-05-09T04:21:33.823Z,3.40
2023-05-09T04:24:20.982Z,3.22
2023-05-09T04:27:07.876Z,6.40
2023-05-09T04:29:54.262Z,3.67
2023-05-09T04:32:39.649Z,4.30
2023-05-09T04:35:28.241Z,3.92
2023-05-09T04:38:13.647Z,3.65
2023-05-09T04:40:59.591Z,3.95
2023-05-09T04:43:45.155Z,3.75
2023-05-09T04:46:30.844Z,3.80
2023-05-09T04:49:16.561Z,4.28
2023-05-09T04:52:02.225Z,4.15
2023-05-09T04:54:47.356Z,3.55
2023-05-09T04:57:34.236Z,4.20
2023-05-09T05:00:20.321Z,3.95
2023-05-09T05:03:07.504Z,3.95
2023-05-09T05:05:53.134Z,3.63
2023-05-09T05:08:38.883Z,4.32
2023-05-09T05:11:24.231Z,4.00
2023-05-09T05:14:09.598Z,3.83
2023-05-09T05:16:55.159Z,4.78
2023-05-09T05:19:41.450Z,3.70
2023-05-09T05:22:27.247Z,4.03
2023-05-09T05:25:13.311Z,4.45
2023-05-09T05:28:00.212Z,4.43
2023-05-09T05:30:46.117Z,3.72
2023-05-09T05:33:31.686Z,4.28
2023-05-09T05:36:17.774Z,3.80
2023-05-09T05:39:02.895Z,4.28
2023-05-09T05:41:48.202Z,4.78
2023-05-09T05:44:34.132Z,4.15
2023-05-09T05:47:19.855Z,3.83
2023-05-09T05:50:11.914Z,4.03
2023-05-09T05:52:58.389Z,5.15
2023-05-09T05:55:45.856Z,5.15
2023-05-09T05:58:32.205Z,4.45
2023-05-09T06:01:18.224Z,3.78
2023-05-09T06:04:03.775Z,4.10
2023-05-09T06:06:51.329Z,3.90
2023-05-09T06:09:36.480Z,3.92
2023-05-09T06:12:21.561Z,3.65
2023-05-09T06:15:07.423Z,3.45
2023-05-09T06:17:57.343Z,4.00
2023-05-09T06:20:42.730Z,3.72
2023-05-09T06:23:28.165Z,3.80
2023-05-09T06:26:14.768Z,3.35
2023-05-09T06:28:59.852Z,3.67
2023-05-09T06:31:45.076Z,3.97
2023-05-09T06:34:30.514Z,3.58
2023-05-09T06:37:15.865Z,3.40
2023-05-09T06:40:01.000Z,3.05
2023-05-09T06:42:46.550Z,3.78
2023-05-09T06:45:31.468Z,4.00
2023-05-09T06:48:16.885Z,3.28
2023-05-09T06:51:02.188Z,3.75
2023-05-09T06:53:47.528Z,3.78
2023-05-09T06:56:33.119Z,3.53
2023-05-09T06:59:18.215Z,2.95
2023-05-09T07:02:03.562Z,3.75
2023-05-09T07:04:48.721Z,3.95
2023-05-09T07:07:33.746Z,2.85
2023-05-09T07:10:19.432Z,3.13
2023-05-09T07:13:05.226Z,3.75
2023-05-09T07:15:50.443Z,3.78
2023-05-09T07:18:35.613Z,3.83
2023-05-09T07:21:20.909Z,3.67
2023-05-09T07:24:06.656Z,3.38
2023-05-09T07:26:52.478Z,4.28
2023-05-09T07:29:38.440Z,3.85
2023-05-09T07:32:23.647Z,3.40
2023-05-09T07:35:09.412Z,4.03
2023-05-09T07:37:54.695Z,3.70
2023-05-09T07:40:39.890Z,3.20
2023-05-09T07:43:25.232Z,3.40
2023-05-09T07:46:10.611Z,4.13
2023-05-09T07:48:55.875Z,3.45
2023-05-09T07:51:41.354Z,3.35
2023-05-09T07:54:26.844Z,3.30
2023-05-09T07:57:12.220Z,3.15
2023-05-09T07:59:57.622Z,3.28
2023-05-09T08:02:42.936Z,3.25
2023-05-09T08:05:27.970Z,2.58
2023-05-09T08:08:13.292Z,3.42
2023-05-09T08:10:58.884Z,3.10
2023-05-09T08:13:44.456Z,2.78
2023-05-09T08:16:30.277Z,2.60
2023-05-09T08:19:15.824Z,2.90
2023-05-09T08:22:01.352Z,3.78
2023-05-09T08:24:47.212Z,3.15
2023-05-09T08:27:32.542Z,3.42
2023-05-09T08:30:18.218Z,3.10
2023-05-09T08:33:03.645Z,2.97
2023-05-09T08:35:56.212Z,3.40
2023-05-09T08:38:41.713Z,3.00
2023-05-09T08:41:28.094Z,3.00
2023-05-09T08:44:13.558Z,3.17
2023-05-09T08:47:00.975Z,2.95
2023-05-09T08:49:46.020Z,2.85
2023-05-09T08:52:33.442Z,3.00
2023-05-09T08:55:19.080Z,3.00
2023-05-09T08:58:05.425Z,3.20
2023-05-09T09:00:50.888Z,3.22
2023-05-09T09:03:37.935Z,3.17
2023-05-09T09:06:25.670Z,3.60
2023-05-09T09:09:13.702Z,3.10
2023-05-09T09:11:59.210Z,2.95
2023-05-09T09:14:50.282Z,3.28
2023-05-09T09:17:41.281Z,3.10
2023-05-09T09:20:29.953Z,2.90
2023-05-09T09:23:20.111Z,3.10
2023-05-09T09:26:05.322Z,2.97
2023-05-09T09:28:50.621Z,3.47
2023-05-09T09:31:35.890Z,2.83
2023-05-09T09:34:22.942Z,3.15
2023-05-09T09:37:08.242Z,3.22
2023-05-09T09:39:55.432Z,3.08
2023-05-09T09:42:45.929Z,2.80
2023-05-09T09:45:31.322Z,2.70
2023-05-09T09:48:16.670Z,3.15
2023-05-09T09:51:12.638Z,3.30
2023-05-09T09:54:02.260Z,2.97
2023-05-09T09:56:50.290Z,3.47
2023-05-09T09:59:35.816Z,3.70
2023-05-09T10:02:23.658Z,2.83
2023-05-09T10:05:09.303Z,3.30
2023-05-09T10:08:04.982Z,3.28
2023-05-09T10:10:50.386Z,3.00
2023-05-09T10:13:37.377Z,2.60
2023-05-09T10:16:35.731Z,3.08
2023-05-09T10:19:29.816Z,2.95
2023-05-09T10:22:17.950Z,3.10
2023-05-09T10:25:06.546Z,3.22
2023-05-09T10:27:54.296Z,3.35
2023-05-09T10:31:07.861Z,3.13
2023-05-09T10:33:59.243Z,2.97
2023-05-09T10:36:48.479Z,3.20
2023-05-09T10:39:34.096Z,3.05
2023-05-09T10:42:21.326Z,2.85
2023-05-09T10:45:11.046Z,3.80
2023-05-09T10:47:56.928Z,3.15
2023-05-09T10:50:43.489Z,3.85
2023-05-09T10:53:45.106Z,3.63
2023-05-09T10:56:35.723Z,3.35
2023-05-09T10:59:41.613Z,3.10
2023-05-09T11:02:30.779Z,2.80
2023-05-09T11:05:17.948Z,3.00
2023-05-09T11:08:23.265Z,3.63
2023-05-09T11:11:25.580Z,3.10
2023-05-09T11:14:48.776Z,2.97
2023-05-09T11:17:38.302Z,3.40
2023-05-09T11:23:19.863Z,2.50
2023-05-09T11:26:07.763Z,2.80
2023-05-09T11:28:54.287Z,3.15
2023-05-09T11:32:05.610Z,3.25
2023-05-09T11:34:51.297Z,3.35
2023-05-09T11:37:46.225Z,3.22
2023-05-09T11:40:32.811Z,3.75
2023-05-09T11:43:18.527Z,3.25
2023-05-09T11:46:04.361Z,3.13
2023-05-09T11:48:49.504Z,2.97
2023-05-09T11:51:38.174Z,3.00
2023-05-09T11:54:23.742Z,3.00
2023-05-09T11:57:09.534Z,3.10
2023-05-09T11:59:55.471Z,3.28
2023-05-09T12:02:44.300Z,4.00
2023-05-09T12:05:29.627Z,3.20
2023-05-09T12:08:15.397Z,2.85
2023-05-09T12:11:10.614Z,3.17
2023-05-09T12:13:56.053Z,2.80
2023-05-09T12:16:47.817Z,2.75
2023-05-09T12:19:33.461Z,3.83
2023-05-09T12:22:29.533Z,2.55
2023-05-09T12:25:18.035Z,2.80
2023-05-09T12:28:12.766Z,3.00
2023-05-09T12:31:08.632Z,3.05
2023-05-09T12:33:54.761Z,3.40
2023-05-09T12:36:40.472Z,3.15
2023-05-09T12:39:26.726Z,3.00
2023-05-09T12:42:16.186Z,3.03
2023-05-09T12:45:02.706Z,2.70
2023-05-09T12:47:58.551Z,3.15
2023-05-09T12:50:47.255Z,2.88
2023-05-09T12:53:38.577Z,3.40
2023-05-09T12:56:24.283Z,2.92
2023-05-09T12:59:11.213Z,3.20
2023-05-09T13:01:58.802Z,3.47
2023-05-09T13:04:44.099Z,2.83
2023-05-09T13:07:29.555Z,2.50
2023-05-09T13:10:21.688Z,3.03
2023-05-09T13:13:07.039Z,2.97
2023-05-09T13:15:52.468Z,2.90
2023-05-09T13:18:37.844Z,2.65
2023-05-09T13:21:23.607Z,2.38
2023-05-09T13:24:09.093Z,3.35
2023-05-09T13:26:54.544Z,3.15
2023-05-09T13:29:43.356Z,2.70
2023-05-09T13:32:29.105Z,2.70
2023-05-09T13:35:15.524Z,3.95
2023-05-09T13:38:01.165Z,2.63
2023-05-09T13:40:46.385Z,2.70
2023-05-09T13:43:31.643Z,3.03
2023-05-09T13:46:17.208Z,2.85
2023-05-09T13:49:02.630Z,3.42
2023-05-09T13:51:47.710Z,2.65
2023-05-09T13:54:35.888Z,2.75
2023-05-09T13:57:21.448Z,2.78
2023-05-09T14:00:07.865Z,2.50
2023-05-09T14:02:57.950Z,3.20
2023-05-09T14:05:43.317Z,3.20
2023-05-09T14:08:28.528Z,2.63
2023-05-09T14:11:13.808Z,2.70
2023-05-09T14:13:59.127Z,3.30
2023-05-09T14:16:44.580Z,3.08
2023-05-09T14:19:32.596Z,3.17
2023-05-09T14:22:17.899Z,2.80
2023-05-09T14:25:03.565Z,2.40
2023-05-09T14:27:48.854Z,2.63
2023-05-09T14:30:34.321Z,2.78
2023-05-09T14:33:20.196Z,2.80
2023-05-09T14:39:38.175Z,2.88
2023-05-09T14:42:23.879Z,2.70
2023-05-09T14:45:12.093Z,2.90
2023-05-09T14:47:57.760Z,2.33
2023-05-09T14:50:43.008Z,2.50
2023-05-09T14:53:28.889Z,2.28
2023-05-09T14:56:16.725Z,2.97
2023-05-09T14:59:03.383Z,3.47
2023-05-09T15:01:50.815Z,2.78
2023-05-09T15:04:36.209Z,2.35
2023-05-09T15:07:21.457Z,2.35
2023-05-09T15:10:07.167Z,3.33
2023-05-09T15:12:52.768Z,2.92
2023-05-09T15:15:41.107Z,2.88
2023-05-09T15:18:28.596Z,2.67
2023-05-09T15:21:14.469Z,2.13
2023-05-09T15:24:00.060Z,2.65
2023-05-09T15:26:45.478Z,2.60
2023-05-09T15:29:30.562Z,2.53
2023-05-09T15:32:16.182Z,2.30
2023-05-09T15:35:01.492Z,4.03
2023-05-09T15:37:46.955Z,3.05
2023-05-09T15:40:32.153Z,2.67
2023-05-09T15:43:17.763Z,2.50
2023-05-09T15:46:03.639Z,2.50
2023-05-09T15:48:49.035Z,2.50
2023-05-09T15:51:34.166Z,3.00
2023-05-09T15:54:20.233Z,2.83
2023-05-09T15:57:06.812Z,2.75
2023-05-09T15:59:55.086Z,2.67
2023-05-09T16:02:41.991Z,2.60
2023-05-09T16:05:27.442Z,2.20
2023-05-09T16:08:13.047Z,2.58
2023-05-09T16:11:00.761Z,3.47
2023-05-09T16:13:46.597Z,2.85
2023-05-09T16:16:31.626Z,2.50
2023-05-09T16:19:18.222Z,2.75
2023-05-09T16:22:03.294Z,2.95
2023-05-09T16:24:49.117Z,2.50
2023-05-09T16:27:34.560Z,3.20
2023-05-09T16:30:19.765Z,3.13
2023-05-09T16:33:05.143Z,2.60
2023-05-09T16:35:50.608Z,3.03
2023-05-09T16:38:36.177Z,3.17
2023-05-09T16:41:22.073Z,2.50
2023-05-09T16:44:07.145Z,2.90
2023-05-09T16:46:53.189Z,2.75
2023-05-09T16:49:38.441Z,2.70
2023-05-09T16:52:24.055Z,3.00
2023-05-09T16:55:09.486Z,2.65
2023-05-09T16:57:54.564Z,2.70
2023-05-09T17:00:39.977Z,3.13
2023-05-09T17:03:25.173Z,3.67
2023-05-09T17:06:10.330Z,3.42
2023-05-09T17:08:55.450Z,4.78
2023-05-09T17:11:40.872Z,3.40
2023-05-09T17:14:26.812Z,3.10
2023-05-09T17:17:14.507Z,2.78
2023-05-09T17:20:01.160Z,3.45
2023-05-09T17:22:46.532Z,2.60
2023-05-09T17:25:31.914Z,3.72
2023-05-09T17:28:17.414Z,3.03
2023-05-09T17:31:03.285Z,3.10
2023-05-09T17:33:48.806Z,2.80
2023-05-09T17:36:34.015Z,4.00
2023-05-09T17:39:19.210Z,2.95
2023-05-09T17:42:05.202Z,3.63
2023-05-09T17:44:50.858Z,2.75
2023-05-09T17:47:37.379Z,3.42
2023-05-09T17:50:22.778Z,3.75
2023-05-09T17:53:09.388Z,3.35
2023-05-09T17:55:54.853Z,3.45
2023-05-09T17:58:39.950Z,3.25
2023-05-09T18:01:25.760Z,3.10
2023-05-09T18:04:10.826Z,3.20
2023-05-09T18:06:56.094Z,3.25
2023-05-09T18:09:41.911Z,2.70
2023-05-09T18:12:31.099Z,3.15
2023-05-09T18:15:16.046Z,3.58
2023-05-09T18:18:01.624Z,3.00
2023-05-09T18:20:47.353Z,3.22
2023-05-09T18:23:33.126Z,2.80
2023-05-09T18:26:18.405Z,3.65
2023-05-09T18:29:03.767Z,3.42
2023-05-09T18:31:49.078Z,3.65
2023-05-09T18:34:34.186Z,3.50
2023-05-09T18:37:19.630Z,3.30
2023-05-09T18:40:05.624Z,3.20
2023-05-09T18:42:50.756Z,3.15
2023-05-09T18:45:36.322Z,3.30
2023-05-09T18:48:21.610Z,3.08
2023-05-09T18:51:07.140Z,2.97
2023-05-09T18:53:52.496Z,3.50
2023-05-09T18:56:39.581Z,3.17
2023-05-09T18:59:25.041Z,3.05
2023-05-09T19:02:10.367Z,3.17
2023-05-09T19:04:55.870Z,3.47
2023-05-09T19:07:41.326Z,3.17
2023-05-09T19:10:26.580Z,3.17
2023-05-09T19:13:12.889Z,2.78
2023-05-09T19:16:00.132Z,3.33
2023-05-09T19:18:45.446Z,3.10
2023-05-09T19:21:30.724Z,3.10
2023-05-09T19:24:15.977Z,3.33
2023-05-09T19:27:01.526Z,3.10
2023-05-09T19:29:48.714Z,3.17
2023-05-09T19:32:35.072Z,3.03
2023-05-09T19:35:20.684Z,3.22
2023-05-09T19:38:05.767Z,3.17
2023-05-09T19:40:51.486Z,3.20
2023-05-09T19:43:36.646Z,3.17
2023-05-09T19:46:22.821Z,3.33
2023-05-09T19:49:12.523Z,3.15
2023-05-09T19:51:58.044Z,3.00
2023-05-09T19:54:43.373Z,3.20
2023-05-09T19:57:29.244Z,3.58
2023-05-09T20:00:14.869Z,3.50
2023-05-09T20:03:00.394Z,2.55
2023-05-09T20:05:45.474Z,3.35
2023-05-09T20:08:31.068Z,3.38
2023-05-09T20:11:16.549Z,2.70
2023-05-09T20:14:01.701Z,3.10
2023-05-09T20:16:47.050Z,2.67
2023-05-09T20:19:33.158Z,3.45
2023-05-09T20:22:18.452Z,3.20
2023-05-09T20:25:04.037Z,3.97
2023-05-09T20:27:49.291Z,3.30
2023-05-09T20:30:34.770Z,3.50
2023-05-09T20:33:19.814Z,3.35
2023-05-09T20:36:06.421Z,3.83
2023-05-09T20:38:52.059Z,3.33
2023-05-09T20:41:37.544Z,3.28
2023-05-09T20:44:23.240Z,3.85
2023-05-09T20:47:08.336Z,3.63
2023-05-09T20:49:53.432Z,3.50
2023-05-09T20:52:38.903Z,3.55
2023-05-09T20:55:24.571Z,3.92
2023-05-09T20:58:09.728Z,3.42
2023-05-09T21:00:55.284Z,3.65
2023-05-09T21:03:40.951Z,3.60
2023-05-09T21:06:26.484Z,2.90
2023-05-09T21:09:11.599Z,3.83
2023-05-09T21:11:57.015Z,3.80
2023-05-09T21:14:42.262Z,3.67
2023-05-09T21:17:27.413Z,3.60
2023-05-09T21:20:13.174Z,3.63
2023-05-09T21:22:58.705Z,3.92
2023-05-09T21:25:44.224Z,3.83
2023-05-09T21:28:29.893Z,3.50
2023-05-09T21:31:15.167Z,3.95
2023-05-09T21:34:00.714Z,4.22
2023-05-09T21:36:45.723Z,4.20
2023-05-09T21:39:32.488Z,5.07
2023-05-09T21:42:18.476Z,4.07
2023-05-09T21:45:04.419Z,3.97
2023-05-09T21:47:50.043Z,3.92
2023-05-09T21:50:35.260Z,4.10
2023-05-09T21:53:20.621Z,4.05
2023-05-09T21:56:05.972Z,4.50
2023-05-09T21:58:51.180Z,4.45
2023-05-09T22:01:36.804Z,4.75
2023-05-09T22:04:21.990Z,4.72
2023-05-09T22:07:07.706Z,4.25
2023-05-09T22:09:53.202Z,4.32
2023-05-09T22:12:38.273Z,4.32
2023-05-09T22:15:23.748Z,4.43
2023-05-09T22:18:08.873Z,4.30
2023-05-09T22:20:54.034Z,4.55
2023-05-09T22:23:39.290Z,4.82
2023-05-09T22:26:25.988Z,5.00
2023-05-09T22:29:11.050Z,5.05
2023-05-09T22:31:56.360Z,4.95
2023-05-09T22:34:41.709Z,4.93
2023-05-09T22:37:26.804Z,6.00
2023-05-09T22:40:12.342Z,5.20
2023-05-09T22:42:57.407Z,5.50
2023-05-09T22:45:43.757Z,5.10
2023-05-09T22:48:29.045Z,5.15
2023-05-09T22:51:14.966Z,4.97
2023-05-09T22:54:00.914Z,5.32
2023-05-09T22:56:47.276Z,4.95
2023-05-09T22:59:32.898Z,5.53
2023-05-09T23:02:18.374Z,5.30
2023-05-09T23:05:03.948Z,5.43
2023-05-09T23:07:49.155Z,5.50
2023-05-09T23:10:34.532Z,5.57
2023-05-09T23:13:19.959Z,5.45
2023-05-09T23:16:05.500Z,5.30
2023-05-09T23:18:50.762Z,5.18
2023-05-09T23:21:36.057Z,6.05
2023-05-09T23:24:21.329Z,5.40
2023-05-09T23:27:06.843Z,5.57
2023-05-09T23:29:51.993Z,6.65
2023-05-09T23:32:37.427Z,5.30
2023-05-09T23:35:22.568Z,4.85
2023-05-09T23:38:08.032Z,4.88
2023-05-09T23:40:54.232Z,5.00
2023-05-09T23:43:39.449Z,5.47
2023-05-09T23:46:24.745Z,6.20
2023-05-09T23:49:09.962Z,5.65
2023-05-09T23:51:55.286Z,5.90
2023-05-09T23:54:40.492Z,5.82
2023-05-09T23:57:26.306Z,5.88
